Airport View

Enter AWOS ICAO identifier for current METAR.

ex. KFNL

KGGE 121115Z AUTO 00000KT 10SM CLR 10/09 A2991 RMK AO2

12 Nov 2019 11:15

Frequency: 118.275

Phone: 843-527-3851

Other Area AWOS: KMYR - KHYW - KLRO - KCKI

TAF KMYR 120523Z 1206/1306 22004KT P6SM BKN200 FM121500 27005KT P6SM SCT250 FM121800 32011G19KT P6SM OVC025 FM122100 36016G30KT 5SM RA OVC010 FM130000 36015G30KT P6SM OVC040 FM130300 36015G27KT P6SM SCT200